Portada
METAR-TAF:

METAR-TAF

Aeroports :

Victòria, Mahé, Seychelles

latitud: 04-40S, longitud: 055-31E, altitud: 3 m

Observació

L'informe es va fer fa 32 minuts, a les 19:00 UTC
Vent 7 kt del Nord/Nord-Est
Temperatura 29°C
Humitat 79%
Pressió 1011 hPa
Visibilitat 10 km o més
Escasses núvols a una alçada de 2100 ft

METAR: FSIA 221900Z 02007KT 9999 FEW021 29/25 Q1011 NOSIG

Hora: 23:32 (19:32 UTC)

Pronòstic

L'informe es va fer fa 2 hores i 31 minuts, a les 17:01 UTC
Pronòstic vàlid del 22 a les 18 UTC al 23 a les 18 UTC
Vent 10 kt del Nord-Est
Visibilitat 10 km o més
Escasses núvols a una alçada de 2100 ft

TAF: FSIA 221701Z 2218/2318 05010KT 9999 FEW021

Observacions i pronòstics meteorològics de més de 4000 aeroports (METAR i TAF).

Les estacions disponibles són els punts grocs i vermells al mapa.

Posi el ratolí al punt desitjat per veure el nom de l'estació.

Feu clic per veure les observacions i els pronòstics meteorològics.

Per canviar el mapa: feu clic els botons verds amb una creu de color negre per apropar; al botó verd amb un guió per allunyar la imatge; o en les fletxes verdes per a mapes adjacents.


METAR-TAF: